Time;durP1;ratioP1;P1;durP2;ratioP2;P2;SDS_P1;SDS_P2;PMS_P1;PMS_P2;Temp;Humidity;BMP_temperature;BMP_pressure;BME280_temperature;BME280_humidity;BME280_pressure;Samples;Min_cycle;Max_cycle;Signal;HPM_P1;HPM_P2
2022/05/18 00:01:33;;;;;;;;;;;;;;;10.25;66.43;98514.59;5027843;28;19979;-78
2022/05/18 00:03:59;;;;;;;;;;;;;;;10.26;64.92;98526.66;5047636;28;20393;-77
2022/05/18 00:06:24;;;;;;;;;;;;;;;10.10;65.78;98531.28;5053217;28;20046;-78
2022/05/18 00:08:50;;;;;;;;;;;;;;;10.03;66.04;98530.56;5053213;28;19920;-77
2022/05/18 00:11:16;;;;;;;;;;;;;;;10.08;66.36;98536.53;5051359;28;19916;-76
2022/05/18 00:13:42;;;;;;;;;;;;;;;10.05;66.71;98530.53;5053057;28;19922;-77
2022/05/18 00:16:08;;;;;;;;;;;;;;;9.98;66.26;98532.38;5052357;28;20007;-77
2022/05/18 00:18:33;;;;;;;;;;;;;;;10.13;65.67;98537.28;5039821;28;20349;-78
2022/05/18 00:21:00;;;;;;;;;;;;;;;10.10;66.21;98541.66;5031744;28;19917;-77
2022/05/18 00:23:26;;;;;;;;;;;;;;;10.18;65.82;98526.81;5042551;28;20287;-77
2022/05/18 00:25:52;;;;;;;;;;;;;;;10.22;65.52;98540.53;5034712;28;19917;-77
2022/05/18 00:28:18;;;;;;;;;;;;;;;10.23;65.37;98542.28;5045282;28;19921;-77
2022/05/18 00:30:43;;;;;;;;;;;;;;;10.17;65.76;98536.34;5031609;28;19917;-78
2022/05/18 00:33:09;;;;;;;;;;;;;;;10.09;66.04;98540.81;5031322;28;19921;-78
2022/05/18 00:35:35;;;;;;;;;;;;;;;10.09;66.40;98542.56;5031193;28;20404;-77
2022/05/18 00:38:00;;;;;;;;;;;;;;;10.24;65.58;98543.97;5016263;28;19921;-75
2022/05/18 00:40:26;;;;;;;;;;;;;;;10.22;65.76;98548.31;5020616;28;19917;-76
2022/05/18 00:42:51;;;;;;;;;;;;;;;10.02;64.60;98551.31;5052256;28;19932;-77
2022/05/18 00:45:17;;;;;;;;;;;;;;;9.86;66.59;98549.03;5052527;28;20521;-77
2022/05/18 00:47:42;;;;;;;;;;;;;;;9.79;67.97;98549.16;5052191;28;19920;-77
2022/05/18 00:50:11;;;;;;;;;;;;;;;9.78;67.28;98550.06;5030825;28;19964;-75
2022/05/18 00:52:46;;;;;;;;;;;;;;;9.79;67.65;98556.94;5033601;28;20303;-76
2022/05/18 00:55:12;;;;;;;;;;;;;;;9.82;67.94;98554.31;5034060;28;19920;-78
2022/05/18 00:57:45;;;;;;;;;;;;;;;9.89;66.75;98559.31;5050129;28;20478;-77
2022/05/18 01:00:12;;;;;;;;;;;;;;;9.89;67.56;98569.69;5014190;28;19920;-77
2022/05/18 01:02:38;;;;;;;;;;;;;;;9.92;66.78;98563.59;5008676;28;20403;-76
2022/05/18 01:05:07;;;;;;;;;;;;;;;10.04;66.45;98567.72;5012911;28;19920;-77
2022/05/18 01:07:40;;;;;;;;;;;;;;;10.01;66.23;98576.38;5015718;28;19943;-76
2022/05/18 01:10:06;;;;;;;;;;;;;;;9.96;66.19;98570.44;5024330;28;19972;-77
2022/05/18 01:12:31;;;;;;;;;;;;;;;9.99;66.42;98578.16;5028144;28;19955;-76
2022/05/18 01:14:58;;;;;;;;;;;;;;;10.07;66.09;98583.16;5066175;28;19921;-77
2022/05/18 01:17:24;;;;;;;;;;;;;;;10.03;65.91;98581.53;5034151;28;20395;-76
2022/05/18 01:19:50;;;;;;;;;;;;;;;9.88;66.58;98583.50;5017636;28;21236;-77
2022/05/18 01:22:35;;;;;;;;;;;;;;;9.83;67.02;98587.94;5018690;28;20388;-76
2022/05/18 01:25:15;;;;;;;;;;;;;;;9.73;67.83;98594.16;5033974;28;20070;-77
2022/05/18 01:27:41;;;;;;;;;;;;;;;9.74;67.97;98595.88;5036117;28;19921;-78
2022/05/18 01:30:07;;;;;;;;;;;;;;;9.67;67.68;98604.66;5052152;28;19924;-77
2022/05/18 01:32:40;;;;;;;;;;;;;;;9.71;68.82;98601.09;5014710;28;19928;-77
2022/05/18 01:35:08;;;;;;;;;;;;;;;9.79;67.73;98603.56;5033974;28;19927;-77
2022/05/18 01:37:33;;;;;;;;;;;;;;;9.80;67.68;98600.06;5033606;28;19917;-76
2022/05/18 01:39:59;;;;;;;;;;;;;;;9.75;67.97;98607.06;5037245;28;19927;-76
2022/05/18 01:42:35;;;;;;;;;;;;;;;9.91;66.91;98609.38;5017668;28;20031;-77
2022/05/18 01:45:01;;;;;;;;;;;;;;;9.91;67.17;98611.13;5051673;28;19921;-76
2022/05/18 01:47:31;;;;;;;;;;;;;;;9.82;67.16;98613.88;5033898;28;19917;-77
2022/05/18 01:49:57;;;;;;;;;;;;;;;9.87;66.66;98612.06;5017004;28;19921;-77
2022/05/18 01:52:22;;;;;;;;;;;;;;;9.87;66.80;98620.66;5030784;28;19917;-76
2022/05/18 01:54:48;;;;;;;;;;;;;;;9.83;66.50;98615.56;5017410;28;20402;-75
2022/05/18 01:57:13;;;;;;;;;;;;;;;9.78;66.66;98622.56;5026993;28;20344;-76
2022/05/18 01:59:39;;;;;;;;;;;;;;;9.84;66.84;98625.03;5043287;28;19920;-77
2022/05/18 02:02:12;;;;;;;;;;;;;;;9.92;66.60;98633.53;5033007;28;19932;-77
2022/05/18 02:04:38;;;;;;;;;;;;;;;9.79;66.66;98639.81;5051297;28;19920;-76
2022/05/18 02:07:04;;;;;;;;;;;;;;;9.74;66.82;98649.41;5017493;28;19927;-76
2022/05/18 02:09:30;;;;;;;;;;;;;;;9.84;66.81;98646.63;5049843;28;19920;-77
2022/05/18 02:11:55;;;;;;;;;;;;;;;9.97;66.91;98639.50;5031026;28;20331;-77
2022/05/18 02:14:21;;;;;;;;;;;;;;;9.90;64.83;98648.28;5030269;28;20384;-77
2022/05/18 02:16:47;;;;;;;;;;;;;;;9.67;66.56;98646.94;5046341;28;19962;-77
2022/05/18 02:19:13;;;;;;;;;;;;;;;9.72;66.88;98648.59;5051573;28;19920;-77
2022/05/18 02:21:38;;;;;;;;;;;;;;;9.63;67.30;98653.03;5051434;28;19921;-77
2022/05/18 02:24:04;;;;;;;;;;;;;;;9.70;68.45;98660.69;5036164;28;19947;-77
2022/05/18 02:26:30;;;;;;;;;;;;;;;9.60;68.29;98665.16;5037383;28;19916;-77
2022/05/18 02:28:55;;;;;;;;;;;;;;;9.58;69.28;98670.38;5055179;28;19921;-77
2022/05/18 02:31:21;;;;;;;;;;;;;;;9.53;69.08;98658.38;5055510;28;19924;-77
2022/05/18 02:33:46;;;;;;;;;;;;;;;9.54;69.88;98660.09;5037605;28;19928;-77
2022/05/18 02:36:12;;;;;;;;;;;;;;;9.62;69.66;98665.97;5055358;28;20335;-77
2022/05/18 02:38:38;;;;;;;;;;;;;;;9.73;69.36;98671.88;5037453;28;19920;-76
2022/05/18 02:41:04;;;;;;;;;;;;;;;9.77;68.75;98675.25;5054875;28;20345;-77
2022/05/18 02:43:29;;;;;;;;;;;;;;;9.81;68.58;98674.34;5054888;28;20418;-77
2022/05/18 02:46:21;;;;;;;;;;;;;;;9.68;68.64;98679.72;5037144;28;19917;-77
2022/05/18 02:48:46;;;;;;;;;;;;;;;9.65;69.81;98686.66;5035279;28;19920;-76
2022/05/18 02:51:12;;;;;;;;;;;;;;;9.63;69.81;98691.03;5036930;28;19923;-77
2022/05/18 02:53:38;;;;;;;;;;;;;;;9.57;70.48;98691.94;5055043;28;19948;-77
2022/05/18 02:56:07;;;;;;;;;;;;;;;9.54;69.96;98697.19;5033988;28;19917;-78
2022/05/18 02:58:32;;;;;;;;;;;;;;;9.57;70.84;98696.28;5034893;28;19963;-76
2022/05/18 03:00:58;;;;;;;;;;;;;;;9.82;68.62;98701.94;5038468;28;19976;-77
2022/05/18 03:03:23;;;;;;;;;;;;;;;9.90;68.48;98705.25;5064188;28;20015;-77
2022/05/18 03:05:49;;;;;;;;;;;;;;;9.78;67.93;98700.28;5010734;28;20308;-76
2022/05/18 03:08:14;;;;;;;;;;;;;;;9.79;69.19;98701.97;5020193;28;20392;-77
2022/05/18 03:10:41;;;;;;;;;;;;;;;9.76;69.77;98702.91;5017382;28;19924;-77
2022/05/18 03:13:07;;;;;;;;;;;;;;;9.84;68.91;98705.34;4998997;28;19961;-76
2022/05/18 03:15:33;;;;;;;;;;;;;;;10.08;67.73;98707.53;5027115;28;19959;-77
2022/05/18 03:17:59;;;;;;;;;;;;;;;10.27;67.73;98708.09;5030673;28;19920;-77
2022/05/18 03:25:53;;;;;;;;;;;;;;;10.37;66.40;98719.16;5049703;28;19925;-77
2022/05/18 03:28:18;;;;;;;;;;;;;;;10.39;65.64;98725.16;5054727;28;20008;-77
2022/05/18 03:30:44;;;;;;;;;;;;;;;10.50;65.98;98733.59;5029905;28;19951;-78
2022/05/18 03:33:09;;;;;;;;;;;;;;;10.52;65.78;98734.41;5053259;28;19967;-76
2022/05/18 03:35:35;;;;;;;;;;;;;;;10.56;64.55;98730.88;5001344;28;20012;-77
2022/05/18 03:38:04;;;;;;;;;;;;;;;10.54;65.04;98739.59;5033816;28;20384;-77
2022/05/18 03:40:29;;;;;;;;;;;;;;;10.37;64.91;98742.47;5020232;28;19956;-78
2022/05/18 03:42:55;;;;;;;;;;;;;;;10.37;65.70;98745.06;5036804;28;19971;-77
2022/05/18 03:45:20;;;;;;;;;;;;;;;10.37;65.63;98750.25;5054481;28;19964;-77
2022/05/18 03:47:46;;;;;;;;;;;;;;;10.36;65.50;98745.97;5033734;28;19921;-78
2022/05/18 03:50:13;;;;;;;;;;;;;;;10.48;65.23;98755.25;5018761;28;19971;-77
2022/05/18 03:52:38;;;;;;;;;;;;;;;10.42;64.77;98756.22;5042166;28;20007;-77
2022/05/18 03:55:04;;;;;;;;;;;;;;;10.30;65.57;98759.00;5018022;28;20503;-76
2022/05/18 03:57:29;;;;;;;;;;;;;;;10.30;65.65;98764.19;5036301;28;19924;-80
2022/05/18 03:59:55;;;;;;;;;;;;;;;10.27;65.98;98766.88;5020618;28;19928;-78
2022/05/18 04:02:20;;;;;;;;;;;;;;;10.43;65.78;98771.72;5018714;28;19968;-79
2022/05/18 04:04:46;;;;;;;;;;;;;;;10.55;65.52;98773.28;5043896;28;19921;-79
2022/05/18 04:07:11;;;;;;;;;;;;;;;10.59;64.98;98772.34;5054111;28;20401;-79
2022/05/18 04:09:37;;;;;;;;;;;;;;;10.57;65.40;98770.63;5054415;28;20046;-79
2022/05/18 04:12:02;;;;;;;;;;;;;;;10.71;65.43;98775.56;5032306;28;20372;-78
2022/05/18 04:14:28;;;;;;;;;;;;;;;10.74;64.52;98778.97;5059451;28;20016;-78
2022/05/18 04:16:54;;;;;;;;;;;;;;;10.74;64.54;98788.50;5053882;28;19923;-78
2022/05/18 04:19:20;;;;;;;;;;;;;;;10.85;63.87;98783.94;5053752;28;19921;-78
2022/05/18 04:21:45;;;;;;;;;;;;;;;10.86;63.92;98783.06;5054097;28;19970;-78
2022/05/18 04:24:11;;;;;;;;;;;;;;;10.72;63.24;98792.84;5053628;28;20007;-79
2022/05/18 04:26:39;;;;;;;;;;;;;;;10.77;64.20;98793.63;5054016;28;19917;-79
2022/05/18 04:29:05;;;;;;;;;;;;;;;10.78;63.53;98792.75;5036198;28;19931;-79
2022/05/18 04:31:30;;;;;;;;;;;;;;;10.76;63.21;98789.31;5054028;28;20388;-79
2022/05/18 04:33:56;;;;;;;;;;;;;;;10.56;63.20;98800.06;5053272;28;20395;-78
2022/05/18 04:36:21;;;;;;;;;;;;;;;10.46;64.32;98809.72;5053760;28;19924;-79
2022/05/18 04:38:47;;;;;;;;;;;;;;;10.48;65.37;98802.78;5053990;28;19955;-80
2022/05/18 04:41:12;;;;;;;;;;;;;;;10.45;64.61;98805.44;5053859;28;19964;-78
2022/05/18 04:43:38;;;;;;;;;;;;;;;10.33;64.46;98800.44;5053695;28;20500;-78
2022/05/18 04:46:03;;;;;;;;;;;;;;;10.42;65.35;98810.66;5018451;28;20387;-79
2022/05/18 04:48:31;;;;;;;;;;;;;;;10.50;64.57;98811.41;5032418;28;20384;-78
2022/05/18 04:50:56;;;;;;;;;;;;;;;10.55;63.87;98814.75;5047993;28;19917;-80
2022/05/18 04:53:23;;;;;;;;;;;;;;;10.49;63.27;98816.59;5053855;28;19927;-82
2022/05/18 04:55:49;;;;;;;;;;;;;;;10.49;64.19;98814.00;5053599;28;19924;-81
2022/05/18 04:58:15;;;;;;;;;;;;;;;10.59;64.56;98821.59;5053280;28;19974;-79
2022/05/18 05:00:41;;;;;;;;;;;;;;;10.77;63.93;98819.56;5029876;28;19984;-77
2022/05/18 05:03:07;;;;;;;;;;;;;;;10.92;63.46;98821.88;5064934;28;19925;-79
2022/05/18 05:05:32;;;;;;;;;;;;;;;10.96;62.13;98827.88;5035303;28;19928;-79
2022/05/18 05:07:58;;;;;;;;;;;;;;;11.00;62.69;98822.59;5035170;28;19921;-78
2022/05/18 05:10:23;;;;;;;;;;;;;;;10.99;62.81;98831.22;5053353;28;19917;-80
2022/05/18 05:12:49;;;;;;;;;;;;;;;11.08;63.11;98831.06;5042804;28;19987;-79
2022/05/18 05:15:15;;;;;;;;;;;;;;;11.22;62.83;98827.34;5031417;28;19927;-79
2022/05/18 05:17:40;;;;;;;;;;;;;;;11.27;61.81;98828.97;5035184;28;19921;-78
2022/05/18 05:20:06;;;;;;;;;;;;;;;11.43;61.51;98834.69;5053022;28;20007;-78
2022/05/18 05:22:32;;;;;;;;;;;;;;;11.33;60.53;98835.78;5035232;28;19959;-79
2022/05/18 05:24:57;;;;;;;;;;;;;;;11.14;61.76;98843.94;5052771;28;19956;-79
2022/05/18 05:27:23;;;;;;;;;;;;;;;11.16;61.99;98839.56;5038329;28;20402;-79
2022/05/18 05:29:48;;;;;;;;;;;;;;;11.26;61.99;98844.56;5052634;28;20372;-79
2022/05/18 05:32:14;;;;;;;;;;;;;;;11.37;61.80;98843.47;5051714;28;19925;-80
2022/05/18 05:34:40;;;;;;;;;;;;;;;11.45;61.67;98845.91;5052523;28;19975;-82
2022/05/18 05:37:06;;;;;;;;;;;;;;;11.50;61.46;98848.41;5017976;28;19920;-79
2022/05/18 05:39:31;;;;;;;;;;;;;;;11.68;60.62;98845.41;5053207;28;19927;-83
2022/05/18 05:41:57;;;;;;;;;;;;;;;11.77;60.12;98847.81;5018174;28;20303;-79
2022/05/18 05:44:22;;;;;;;;;;;;;;;11.67;60.23;98854.94;5034216;28;19921;-80
2022/05/18 05:46:48;;;;;;;;;;;;;;;11.56;60.04;98853.47;5051957;28;19920;-78
2022/05/18 05:49:13;;;;;;;;;;;;;;;11.56;60.32;98861.28;5034891;28;19923;-80
2022/05/18 05:51:39;;;;;;;;;;;;;;;11.49;60.83;98862.28;5018322;28;19972;-79
2022/05/18 05:54:05;;;;;;;;;;;;;;;11.45;60.80;98858.88;5052312;28;19920;-80
2022/05/18 05:56:30;;;;;;;;;;;;;;;11.56;61.18;98863.88;5017896;28;19924;-80
2022/05/18 05:58:56;;;;;;;;;;;;;;;11.67;60.40;98867.09;5052225;28;19916;-78
2022/05/18 06:01:21;;;;;;;;;;;;;;;11.55;60.26;98862.16;5041826;28;19924;-81
2022/05/18 06:03:47;;;;;;;;;;;;;;;11.53;61.17;98869.97;5034811;28;19946;-79
2022/05/18 06:06:12;;;;;;;;;;;;;;;11.66;60.57;98866.25;5052592;28;19925;-79
2022/05/18 06:08:38;;;;;;;;;;;;;;;11.70;60.83;98872.22;5034132;28;20031;-81
2022/05/18 06:11:04;;;;;;;;;;;;;;;11.80;59.46;98868.53;5051404;28;19921;-79
2022/05/18 06:13:29;;;;;;;;;;;;;;;11.87;60.08;98875.34;5038280;28;19917;-80
2022/05/18 06:15:55;;;;;;;;;;;;;;;11.90;60.03;98871.81;5044728;28;19925;-79
2022/05/18 06:18:21;;;;;;;;;;;;;;;11.98;60.34;98876.84;5034471;28;19916;-79
2022/05/18 06:20:47;;;;;;;;;;;;;;;12.06;59.62;98875.81;5017825;28;20422;-79
2022/05/18 06:23:12;;;;;;;;;;;;;;;12.14;59.83;98873.88;5034196;28;19928;-77
2022/05/18 06:25:38;;;;;;;;;;;;;;;12.31;59.61;98883.03;5051965;28;19928;-79
2022/05/18 06:28:04;;;;;;;;;;;;;;;12.45;58.44;98880.94;5034057;28;20288;-82
2022/05/18 06:30:29;;;;;;;;;;;;;;;12.54;57.82;98883.31;5015572;28;19921;-82
2022/05/18 06:32:55;;;;;;;;;;;;;;;12.69;57.83;98880.38;5034237;28;20347;-79
2022/05/18 06:35:21;;;;;;;;;;;;;;;13.06;57.41;98882.00;5040141;28;19927;-80
2022/05/18 06:37:48;;;;;;;;;;;;;;;13.30;55.79;98890.09;5050950;28;19917;-83
2022/05/18 06:40:14;;;;;;;;;;;;;;;13.38;55.50;98888.13;5053402;28;20081;-82
2022/05/18 06:42:40;;;;;;;;;;;;;;;13.40;55.50;98895.00;5018156;28;20461;-82
2022/05/18 06:45:08;;;;;;;;;;;;;;;13.51;56.29;98894.69;5052818;28;19955;-79
2022/05/18 06:47:34;;;;;;;;;;;;;;;13.61;55.38;98892.69;5052311;28;19917;-82
2022/05/18 06:49:59;;;;;;;;;;;;;;;13.67;55.15;98895.97;5052863;28;19933;-79
2022/05/18 06:52:25;;;;;;;;;;;;;;;13.84;54.87;98890.28;5052004;28;19917;-80
2022/05/18 06:54:51;;;;;;;;;;;;;;;13.93;53.57;98896.97;5017873;28;20012;-80
2022/05/18 06:57:16;;;;;;;;;;;;;;;14.07;53.42;98902.63;5041104;28;19924;-80
2022/05/18 06:59:42;;;;;;;;;;;;;;;14.40;54.17;98899.88;5048746;28;20295;-79
2022/05/18 07:02:07;;;;;;;;;;;;;;;14.67;52.73;98912.06;5018894;28;20312;-79
2022/05/18 07:04:33;;;;;;;;;;;;;;;14.90;52.46;98897.38;5026638;28;19921;-79
2022/05/18 07:07:00;;;;;;;;;;;;;;;14.98;49.60;98900.56;5032018;28;20384;-79
2022/05/18 07:09:27;;;;;;;;;;;;;;;15.15;52.01;98903.47;5032338;28;19964;-83
2022/05/18 07:11:52;;;;;;;;;;;;;;;15.30;51.33;98898.59;5048822;28;20081;-79
2022/05/18 07:14:19;;;;;;;;;;;;;;;15.39;49.83;98900.88;5016873;28;19965;-79
2022/05/18 07:16:45;;;;;;;;;;;;;;;15.45;49.80;98912.00;5043567;28;19920;-81
2022/05/18 07:19:10;;;;;;;;;;;;;;;15.50;47.16;98911.81;5051185;28;19927;-82
2022/05/18 07:21:36;;;;;;;;;;;;;;;15.60;48.23;98910.56;5034052;28;19976;-80
2022/05/18 07:24:01;;;;;;;;;;;;;;;15.89;50.28;98906.06;5034113;28;19931;-81
2022/05/18 07:26:28;;;;;;;;;;;;;;;16.08;49.58;98914.94;5050327;28;20358;-84
2022/05/18 07:28:54;;;;;;;;;;;;;;;16.12;49.20;98908.63;5018101;28;19975;-82
2022/05/18 07:31:19;;;;;;;;;;;;;;;16.13;45.21;98910.38;5051182;28;20009;-81
2022/05/18 07:33:46;;;;;;;;;;;;;;;16.35;48.59;98910.34;5021980;28;20079;-86
2022/05/18 07:36:12;;;;;;;;;;;;;;;16.61;45.64;98911.94;5012335;28;20320;-81
2022/05/18 07:38:39;;;;;;;;;;;;;;;16.81;44.00;98908.53;5023604;28;19968;-82
2022/05/18 07:41:05;;;;;;;;;;;;;;;16.91;45.59;98920.34;5015547;28;19921;-80
2022/05/18 07:43:30;;;;;;;;;;;;;;;16.89;42.70;98914.31;5018029;28;20383;-80
2022/05/18 07:45:56;;;;;;;;;;;;;;;16.78;44.61;98916.53;5034879;28;20463;-79
2022/05/18 07:48:22;;;;;;;;;;;;;;;16.62;42.00;98915.41;5030010;28;19964;-84
2022/05/18 07:50:47;;;;;;;;;;;;;;;16.49;45.59;98922.91;5007769;28;19967;-83
2022/05/18 07:53:13;;;;;;;;;;;;;;;16.46;46.28;98917.81;5014373;28;19929;-83
2022/05/18 07:55:38;;;;;;;;;;;;;;;16.48;42.10;98923.81;5014074;28;19925;-83
2022/05/18 07:58:04;;;;;;;;;;;;;;;16.58;45.04;98922.53;5014388;28;19930;-84
2022/05/18 08:00:30;;;;;;;;;;;;;;;16.58;44.75;98927.75;5000927;28;20088;-80
2022/05/18 08:02:56;;;;;;;;;;;;;;;16.59;44.18;98932.13;5031861;28;19932;-79
2022/05/18 08:05:21;;;;;;;;;;;;;;;16.59;44.93;98945.22;5017043;28;19921;-79
2022/05/18 08:07:47;;;;;;;;;;;;;;;16.49;44.50;98939.50;5034421;28;19936;-80
2022/05/18 08:15:45;;;;;;;;;;;;;;;16.41;43.81;98945.94;5041375;28;19947;-80
2022/05/18 08:18:10;;;;;;;;;;;;;;;16.74;43.80;98941.16;5036673;28;19917;-79
2022/05/18 08:20:39;;;;;;;;;;;;;;;17.18;43.24;98941.03;5054219;28;20338;-80
2022/05/18 08:23:05;;;;;;;;;;;;;;;17.59;42.60;98947.13;5020008;28;19932;-79
2022/05/18 08:25:31;;;;;;;;;;;;;;;17.81;37.81;98944.44;5037039;28;19927;-80
2022/05/18 08:27:56;;;;;;;;;;;;;;;18.11;40.37;98936.94;5033417;28;19921;-79
2022/05/18 08:30:22;;;;;;;;;;;;;;;18.39;32.77;98935.66;5023861;28;19921;-79
2022/05/18 08:32:47;;;;;;;;;;;;;;;18.74;37.77;98936.63;5035290;28;19921;-80
2022/05/18 08:35:14;;;;;;;;;;;;;;;19.14;36.92;98937.25;5036266;28;19928;-79
2022/05/18 08:37:40;;;;;;;;;;;;;;;19.25;31.94;98941.03;5036695;28;19939;-81
2022/05/18 08:40:06;;;;;;;;;;;;;;;19.21;35.36;98947.38;5037200;28;19921;-84
2022/05/18 08:42:32;;;;;;;;;;;;;;;18.92;36.17;98942.72;5004164;28;19921;-79
2022/05/18 08:44:58;;;;;;;;;;;;;;;18.96;38.18;98936.38;5031852;28;20281;-81
2022/05/18 08:47:53;;;;;;;;;;;;;;;19.19;32.17;98937.88;5034559;28;19967;-79
2022/05/18 08:50:19;;;;;;;;;;;;;;;19.53;36.85;98944.88;5020634;28;20297;-80
2022/05/18 08:52:50;;;;;;;;;;;;;;;19.91;31.08;98942.03;5030319;28;19927;-81
2022/05/18 08:55:29;;;;;;;;;;;;;;;20.25;34.61;98941.91;5032586;28;19920;-79
2022/05/18 08:57:58;;;;;;;;;;;;;;;20.15;30.32;98951.22;5028990;28;19925;-79
2022/05/18 09:00:25;;;;;;;;;;;;;;;19.95;33.29;98949.69;5016919;28;20527;-81
2022/05/18 09:02:59;;;;;;;;;;;;;;;19.64;30.64;98945.19;5007474;28;19987;-80
2022/05/18 09:05:28;;;;;;;;;;;;;;;19.64;33.46;98960.13;5016275;28;19921;-81
2022/05/18 09:07:57;;;;;;;;;;;;;;;19.96;31.16;98950.53;5033943;28;20303;-81
2022/05/18 09:10:27;;;;;;;;;;;;;;;20.47;34.90;98945.97;5030311;28;19967;-84
2022/05/18 09:12:53;;;;;;;;;;;;;;;21.02;29.85;98948.13;5016056;28;19921;-80
2022/05/18 09:15:38;;;;;;;;;;;;;;;21.57;32.16;98943.09;5050724;28;20277;-81
2022/05/18 09:18:30;;;;;;;;;;;;;;;21.68;32.26;98953.00;5023645;28;19956;-80
2022/05/18 09:21:05;;;;;;;;;;;;;;;21.29;27.48;98949.13;5018833;28;20442;-82
2022/05/18 09:23:45;;;;;;;;;;;;;;;20.95;31.47;98955.56;5020913;28;19929;-87
2022/05/18 09:26:17;;;;;;;;;;;;;;;21.00;33.21;98952.66;5054234;28;19920;-81
2022/05/18 09:28:46;;;;;;;;;;;;;;;21.52;29.78;98957.50;5036943;28;19927;-81
2022/05/18 09:31:15;;;;;;;;;;;;;;;22.00;30.46;98952.81;5019336;28;19960;-81
2022/05/18 09:33:40;;;;;;;;;;;;;;;21.86;30.17;98958.13;5054706;28;19920;-81
2022/05/18 09:36:09;;;;;;;;;;;;;;;21.96;30.18;98953.97;5036682;28;19924;-79
2022/05/18 09:38:34;;;;;;;;;;;;;;;22.26;29.23;98956.50;5033196;28;19933;-81
2022/05/18 09:41:00;;;;;;;;;;;;;;;23.00;29.12;98949.94;5051714;28;19917;-81
2022/05/18 09:43:37;;;;;;;;;;;;;;;23.87;29.25;98951.13;5036924;28;19924;-81
2022/05/18 09:46:02;;;;;;;;;;;;;;;24.70;27.01;98960.19;5019010;28;19928;-79
2022/05/18 09:48:31;;;;;;;;;;;;;;;25.41;23.09;98945.16;5035988;28;20390;-84
2022/05/18 09:50:57;;;;;;;;;;;;;;;26.01;26.22;98945.84;5035819;28;19920;-81
2022/05/18 09:53:24;;;;;;;;;;;;;;;26.54;21.60;98957.53;5054192;28;19916;-82
2022/05/18 09:55:49;;;;;;;;;;;;;;;26.97;23.03;98943.34;5040565;28;19921;-84
2022/05/18 09:58:15;;;;;;;;;;;;;;;27.35;21.11;98947.28;5037792;28;19971;-80
2022/05/18 10:00:41;;;;;;;;;;;;;;;27.02;25.12;98954.44;5029213;28;19928;-79
2022/05/18 10:08:44;;;;;;;;;;;;;;;27.32;19.59;98945.75;5051740;28;20389;-80
2022/05/18 10:11:12;;;;;;;;;;;;;;;27.56;21.56;98952.63;5035326;28;19994;-82
2022/05/18 10:13:42;;;;;;;;;;;;;;;27.44;23.13;98970.47;5021298;28;19929;-81
2022/05/18 10:16:17;;;;;;;;;;;;;;;27.18;23.42;98954.06;5018450;28;19939;-82
2022/05/18 10:18:42;;;;;;;;;;;;;;;26.29;23.78;98971.06;5035560;28;19925;-81
2022/05/18 10:21:09;;;;;;;;;;;;;;;25.70;24.74;98953.50;5035479;28;19924;-84
2022/05/18 10:23:36;;;;;;;;;;;;;;;25.51;25.28;98953.25;5017572;28;20030;-80
2022/05/18 10:26:03;;;;;;;;;;;;;;;25.60;23.98;98952.53;5035038;28;19921;-81
2022/05/18 10:28:29;;;;;;;;;;;;;;;25.54;23.11;98955.69;5019579;28;20307;-83
2022/05/18 10:31:02;;;;;;;;;;;;;;;25.62;23.41;98955.09;5035730;28;19921;-80
2022/05/18 10:33:32;;;;;;;;;;;;;;;25.68;23.69;98955.44;5018561;28;19964;-81
2022/05/18 10:36:19;;;;;;;;;;;;;;;25.69;25.09;98950.97;5015733;28;19923;-82
2022/05/18 10:39:04;;;;;;;;;;;;;;;25.87;20.68;98954.06;5035712;28;19925;-81
2022/05/18 10:41:36;;;;;;;;;;;;;;;26.02;21.80;98945.69;5035810;28;20376;-83
2022/05/18 10:44:06;;;;;;;;;;;;;;;26.21;20.50;98955.75;5036097;28;20035;-81
2022/05/18 10:46:42;;;;;;;;;;;;;;;26.68;24.22;98952.91;5039001;28;19979;-81
2022/05/18 10:49:09;;;;;;;;;;;;;;;27.13;23.71;98947.44;5038906;28;19921;-81
2022/05/18 10:51:37;;;;;;;;;;;;;;;27.58;21.67;98956.00;5039420;28;19944;-82
2022/05/18 10:54:08;;;;;;;;;;;;;;;27.66;20.83;98958.84;5056497;28;20370;-81
2022/05/18 10:56:33;;;;;;;;;;;;;;;27.86;23.25;98965.19;5056581;28;19971;-80
2022/05/18 10:59:17;;;;;;;;;;;;;;;28.14;18.66;98958.28;5035094;28;20391;-84
2022/05/18 11:01:46;;;;;;;;;;;;;;;28.49;22.15;98946.31;5042960;28;19932;-81
2022/05/18 11:04:28;;;;;;;;;;;;;;;28.52;18.64;98943.38;5022958;28;19974;-81
2022/05/18 11:06:54;;;;;;;;;;;;;;;28.88;20.67;98953.41;5023551;28;19966;-81
2022/05/18 11:09:28;;;;;;;;;;;;;;;29.13;21.40;98945.81;5035134;28;19921;-82
2022/05/18 11:11:54;;;;;;;;;;;;;;;29.51;19.52;98954.81;5035164;28;19925;-80
2022/05/18 11:14:20;;;;;;;;;;;;;;;29.41;18.72;98944.09;5036349;28;20387;-81
2022/05/18 11:16:46;;;;;;;;;;;;;;;29.57;19.33;98947.06;5049629;28;19920;-81
2022/05/18 11:19:14;;;;;;;;;;;;;;;29.82;19.57;98952.75;5056244;28;19996;-84
2022/05/18 11:21:59;;;;;;;;;;;;;;;30.09;20.75;98951.94;5021389;28;19967;-81
2022/05/18 11:24:43;;;;;;;;;;;;;;;29.99;20.09;98959.16;5056397;28;19928;-80
2022/05/18 11:27:12;;;;;;;;;;;;;;;30.12;20.27;98951.66;5056184;28;19925;-84
2022/05/18 11:29:56;;;;;;;;;;;;;;;30.37;19.72;98950.97;5055833;28;19920;-80
2022/05/18 11:32:22;;;;;;;;;;;;;;;30.28;17.71;98959.91;5037908;28;19975;-82
2022/05/18 11:34:47;;;;;;;;;;;;;;;30.70;19.35;98947.81;5049286;28;19917;-79
2022/05/18 11:37:13;;;;;;;;;;;;;;;30.56;17.19;98947.38;5049364;28;19927;-81
2022/05/18 11:39:39;;;;;;;;;;;;;;;30.41;16.30;98942.66;5054071;28;19990;-81
2022/05/18 11:42:07;;;;;;;;;;;;;;;30.63;18.97;98952.94;5043420;28;19925;-82
2022/05/18 11:44:41;;;;;;;;;;;;;;;30.73;16.00;98959.09;5051105;28;20008;-82
2022/05/18 11:47:09;;;;;;;;;;;;;;;31.14;18.67;98951.44;5044636;28;19927;-84
2022/05/18 11:49:44;;;;;;;;;;;;;;;31.54;17.71;98952.78;5021660;28;20067;-79
2022/05/18 11:52:23;;;;;;;;;;;;;;;31.47;15.21;98941.00;5054418;28;19931;-82
2022/05/18 11:54:58;;;;;;;;;;;;;;;31.61;15.93;98957.38;5053437;28;20307;-80
2022/05/18 11:57:45;;;;;;;;;;;;;;;31.95;18.49;98955.75;5037365;28;19921;-80
2022/05/18 12:00:19;;;;;;;;;;;;;;;32.03;17.54;98955.81;5053279;28;20407;-82
2022/05/18 12:03:02;;;;;;;;;;;;;;;32.10;18.41;98949.59;5037229;28;19971;-79
2022/05/18 12:05:31;;;;;;;;;;;;;;;32.21;17.87;98953.00;5037126;28;19920;-81
2022/05/18 12:07:57;;;;;;;;;;;;;;;32.40;15.09;98963.53;5055600;28;19948;-81
2022/05/18 12:10:26;;;;;;;;;;;;;;;32.69;15.90;98954.19;5055049;28;19921;-81
2022/05/18 12:13:11;;;;;;;;;;;;;;;33.11;17.16;98963.00;5026766;28;19924;-80
2022/05/18 12:15:51;;;;;;;;;;;;;;;33.40;16.50;98942.81;5049880;28;19964;-81
2022/05/18 12:18:19;;;;;;;;;;;;;;;33.39;15.68;98955.44;5037126;28;19921;-82
2022/05/18 12:20:48;;;;;;;;;;;;;;;33.31;16.35;98951.91;5033456;28;19951;-80
2022/05/18 12:23:15;;;;;;;;;;;;;;;33.21;16.81;98941.34;5055027;28;20304;-80
2022/05/18 12:25:41;;;;;;;;;;;;;;;33.49;16.73;98951.75;5017484;28;20441;-81
2022/05/18 12:28:07;;;;;;;;;;;;;;;33.60;16.45;98948.72;5054602;28;19920;-87
2022/05/18 12:30:33;;;;;;;;;;;;;;;33.49;14.03;98959.81;5020675;28;19923;-81
2022/05/18 12:32:59;;;;;;;;;;;;;;;32.97;15.89;98952.94;5036337;28;19925;-80
2022/05/18 12:35:26;;;;;;;;;;;;;;;33.04;16.71;98959.31;5055023;28;19923;-85
2022/05/18 12:37:58;;;;;;;;;;;;;;;33.30;16.57;98953.75;5020571;28;19920;-82
2022/05/18 12:40:33;;;;;;;;;;;;;;;33.08;16.66;98943.69;5042405;28;19925;-85
2022/05/18 12:43:17;;;;;;;;;;;;;;;32.69;15.84;98949.66;5051157;28;19920;-82
2022/05/18 12:45:44;;;;;;;;;;;;;;;33.11;16.56;98946.88;5036546;28;19920;-84
2022/05/18 12:48:12;;;;;;;;;;;;;;;32.83;16.66;98954.38;5017850;28;19947;-82
2022/05/18 12:50:41;;;;;;;;;;;;;;;31.93;16.17;98957.75;5038219;28;19925;-81
2022/05/18 12:53:23;;;;;;;;;;;;;;;30.40;17.90;98959.72;5038037;28;20002;-81
2022/05/18 12:55:49;;;;;;;;;;;;;;;29.29;18.57;98959.47;5060596;28;19927;-81
2022/05/18 12:58:25;;;;;;;;;;;;;;;28.57;18.32;98960.66;5040309;28;20345;-81
2022/05/18 13:00:55;;;;;;;;;;;;;;;28.03;20.07;98958.34;5042025;28;19921;-80
2022/05/18 13:03:23;;;;;;;;;;;;;;;27.53;20.09;98952.88;5030484;28;20003;-81
2022/05/18 13:05:53;;;;;;;;;;;;;;;26.89;20.86;98966.25;5033877;28;19975;-83
2022/05/18 13:08:24;;;;;;;;;;;;;;;26.23;21.57;98963.59;5016384;28;20411;-83